sensor_id;sensor_type;location;lat;lon;timestamp;pressure;altitude;pressure_sealevel;temperature;humidity
10706;BME280;5404;42.656;23.336;2023-12-14T00:01:11;93774.94;;;4.37;76.05
10706;BME280;5404;42.656;23.336;2023-12-14T00:03:36;93807.31;;;4.29;76.25
10706;BME280;5404;42.656;23.336;2023-12-14T00:06:02;93792.38;;;4.18;76.92
10706;BME280;5404;42.656;23.336;2023-12-14T00:08:28;93798.59;;;4.08;77.25
10706;BME280;5404;42.656;23.336;2023-12-14T00:10:53;93785.50;;;4.06;76.86
10706;BME280;5404;42.656;23.336;2023-12-14T00:13:18;93785.44;;;4.17;76.99
10706;BME280;5404;42.656;23.336;2023-12-14T00:15:44;93809.00;;;4.02;77.15
10706;BME280;5404;42.656;23.336;2023-12-14T00:18:09;93769.31;;;4.10;76.89
10706;BME280;5404;42.656;23.336;2023-12-14T00:20:35;93819.75;;;4.06;77.87
10706;BME280;5404;42.656;23.336;2023-12-14T00:23:00;93786.28;;;4.03;77.53
10706;BME280;5404;42.656;23.336;2023-12-14T00:25:26;93816.72;;;4.04;77.51
10706;BME280;5404;42.656;23.336;2023-12-14T00:27:51;93797.44;;;4.05;77.21
10706;BME280;5404;42.656;23.336;2023-12-14T00:30:17;93793.22;;;4.01;77.65
10706;BME280;5404;42.656;23.336;2023-12-14T00:32:42;93787.06;;;4.00;77.91
10706;BME280;5404;42.656;23.336;2023-12-14T00:35:07;93810.16;;;4.01;77.73
10706;BME280;5404;42.656;23.336;2023-12-14T00:37:33;93786.31;;;3.96;77.48
10706;BME280;5404;42.656;23.336;2023-12-14T00:39:58;93799.03;;;3.96;77.59
10706;BME280;5404;42.656;23.336;2023-12-14T00:42:24;93795.56;;;3.91;77.66
10706;BME280;5404;42.656;23.336;2023-12-14T00:44:49;93770.53;;;3.94;78.12
10706;BME280;5404;42.656;23.336;2023-12-14T00:47:14;93822.50;;;3.95;77.29
10706;BME280;5404;42.656;23.336;2023-12-14T00:49:40;93785.94;;;3.94;77.89
10706;BME280;5404;42.656;23.336;2023-12-14T00:52:06;93804.88;;;3.83;78.17
10706;BME280;5404;42.656;23.336;2023-12-14T00:54:31;93790.19;;;3.91;77.48
10706;BME280;5404;42.656;23.336;2023-12-14T00:56:56;93788.69;;;3.80;77.86
10706;BME280;5404;42.656;23.336;2023-12-14T00:59:22;93760.56;;;3.88;78.37
10706;BME280;5404;42.656;23.336;2023-12-14T01:01:47;93799.88;;;3.82;78.44
10706;BME280;5404;42.656;23.336;2023-12-14T01:04:13;93786.38;;;3.82;78.52
10706;BME280;5404;42.656;23.336;2023-12-14T01:06:38;93809.47;;;3.83;78.05
10706;BME280;5404;42.656;23.336;2023-12-14T01:09:03;93789.47;;;3.77;78.43
10706;BME280;5404;42.656;23.336;2023-12-14T01:11:29;93800.66;;;3.72;78.77
10706;BME280;5404;42.656;23.336;2023-12-14T01:13:54;93780.22;;;3.78;78.52
10706;BME280;5404;42.656;23.336;2023-12-14T01:16:20;93784.84;;;3.81;77.96
10706;BME280;5404;42.656;23.336;2023-12-14T01:18:45;93802.19;;;3.73;78.23
10706;BME280;5404;42.656;23.336;2023-12-14T01:21:10;93790.25;;;3.74;78.44
10706;BME280;5404;42.656;23.336;2023-12-14T01:23:36;93780.66;;;3.73;78.08
10706;BME280;5404;42.656;23.336;2023-12-14T01:26:03;93791.81;;;3.75;78.22
10706;BME280;5404;42.656;23.336;2023-12-14T01:28:28;93796.84;;;3.62;78.72
10706;BME280;5404;42.656;23.336;2023-12-14T01:30:54;93770.28;;;3.68;78.31
10706;BME280;5404;42.656;23.336;2023-12-14T01:33:19;93804.94;;;3.62;78.03
10706;BME280;5404;42.656;23.336;2023-12-14T01:35:45;93791.47;;;3.59;78.35
10706;BME280;5404;42.656;23.336;2023-12-14T01:38:10;93801.09;;;3.60;78.98
10706;BME280;5404;42.656;23.336;2023-12-14T01:40:36;93798.03;;;3.50;78.56
10706;BME280;5404;42.656;23.336;2023-12-14T01:43:10;93793.41;;;3.54;79.22
10706;BME280;5404;42.656;23.336;2023-12-14T01:45:37;93776.13;;;3.41;79.47
10706;BME280;5404;42.656;23.336;2023-12-14T01:48:03;93799.97;;;3.46;79.51
10706;BME280;5404;42.656;23.336;2023-12-14T01:50:29;93791.91;;;3.46;78.59
10706;BME280;5404;42.656;23.336;2023-12-14T01:52:54;93783.41;;;3.51;79.64
10706;BME280;5404;42.656;23.336;2023-12-14T01:55:20;93774.19;;;3.52;79.49
10706;BME280;5404;42.656;23.336;2023-12-14T01:57:45;93792.66;;;3.47;78.87
10706;BME280;5404;42.656;23.336;2023-12-14T02:00:21;93788.41;;;3.53;78.78
10706;BME280;5404;42.656;23.336;2023-12-14T02:02:48;93785.69;;;3.57;78.75
10706;BME280;5404;42.656;23.336;2023-12-14T02:05:15;93772.25;;;3.49;78.76
10706;BME280;5404;42.656;23.336;2023-12-14T02:07:41;93786.84;;;3.55;79.38
10706;BME280;5404;42.656;23.336;2023-12-14T02:10:07;93760.69;;;3.56;79.48
10706;BME280;5404;42.656;23.336;2023-12-14T02:12:32;93764.16;;;3.57;79.37
10706;BME280;5404;42.656;23.336;2023-12-14T02:14:59;93749.56;;;3.50;78.59
10706;BME280;5404;42.656;23.336;2023-12-14T02:17:24;93756.75;;;3.78;78.96
10706;BME280;5404;42.656;23.336;2023-12-14T02:19:50;93751.72;;;3.84;78.34
10706;BME280;5404;42.656;23.336;2023-12-14T02:22:16;93753.69;;;3.80;78.44
10706;BME280;5404;42.656;23.336;2023-12-14T02:24:42;93756.34;;;3.90;78.37
10706;BME280;5404;42.656;23.336;2023-12-14T02:27:07;93747.09;;;3.88;78.12
10706;BME280;5404;42.656;23.336;2023-12-14T02:29:33;93757.53;;;3.82;78.43
10706;BME280;5404;42.656;23.336;2023-12-14T02:31:58;93749.44;;;3.79;78.12
10706;BME280;5404;42.656;23.336;2023-12-14T02:34:24;93755.59;;;3.83;78.44
10706;BME280;5404;42.656;23.336;2023-12-14T02:36:50;93755.22;;;3.81;78.35
10706;BME280;5404;42.656;23.336;2023-12-14T02:39:15;93768.66;;;3.88;78.40
10706;BME280;5404;42.656;23.336;2023-12-14T02:41:41;93757.91;;;3.81;77.77
10706;BME280;5404;42.656;23.336;2023-12-14T02:44:06;93759.84;;;3.77;78.30
10706;BME280;5404;42.656;23.336;2023-12-14T02:46:33;93767.22;;;3.69;78.54
10706;BME280;5404;42.656;23.336;2023-12-14T02:48:58;93768.69;;;3.77;78.29
10706;BME280;5404;42.656;23.336;2023-12-14T02:51:24;93757.94;;;3.74;78.40
10706;BME280;5404;42.656;23.336;2023-12-14T02:53:49;93781.03;;;3.75;78.07
10706;BME280;5404;42.656;23.336;2023-12-14T02:56:15;93762.50;;;3.84;78.54
10706;BME280;5404;42.656;23.336;2023-12-14T02:58:40;93777.53;;;3.78;78.74
10706;BME280;5404;42.656;23.336;2023-12-14T03:01:05;93757.91;;;3.81;78.32
10706;BME280;5404;42.656;23.336;2023-12-14T03:03:31;93773.28;;;3.84;78.14
10706;BME280;5404;42.656;23.336;2023-12-14T03:05:56;93785.91;;;4.05;77.36
10706;BME280;5404;42.656;23.336;2023-12-14T03:08:22;93777.81;;;4.01;77.28
10706;BME280;5404;42.656;23.336;2023-12-14T03:10:47;93763.59;;;4.01;77.10
10706;BME280;5404;42.656;23.336;2023-12-14T03:13:12;93738.56;;;4.04;77.68
10706;BME280;5404;42.656;23.336;2023-12-14T03:15:38;93757.03;;;3.98;77.84
10706;BME280;5404;42.656;23.336;2023-12-14T03:18:03;93741.22;;;4.07;77.75
10706;BME280;5404;42.656;23.336;2023-12-14T03:20:29;93757.03;;;4.02;77.64
10706;BME280;5404;42.656;23.336;2023-12-14T03:22:55;93723.88;;;4.08;77.34
10706;BME280;5404;42.656;23.336;2023-12-14T03:25:21;93736.97;;;4.06;77.67
10706;BME280;5404;42.656;23.336;2023-12-14T03:27:46;93739.34;;;3.97;77.43
10706;BME280;5404;42.656;23.336;2023-12-14T03:30:11;93731.56;;;4.10;77.75
10706;BME280;5404;42.656;23.336;2023-12-14T03:32:37;93722.81;;;3.91;77.87
10706;BME280;5404;42.656;23.336;2023-12-14T03:35:03;93747.78;;;3.99;78.21
10706;BME280;5404;42.656;23.336;2023-12-14T03:37:28;93726.56;;;4.12;77.73
10706;BME280;5404;42.656;23.336;2023-12-14T03:39:54;93727.00;;;4.03;77.79
10706;BME280;5404;42.656;23.336;2023-12-14T03:42:20;93719.31;;;3.98;77.78
10706;BME280;5404;42.656;23.336;2023-12-14T03:44:46;93725.44;;;4.06;77.49
10706;BME280;5404;42.656;23.336;2023-12-14T03:47:11;93710.44;;;4.05;77.88
10706;BME280;5404;42.656;23.336;2023-12-14T03:49:40;93728.53;;;4.04;77.57
10706;BME280;5404;42.656;23.336;2023-12-14T03:52:05;93697.00;;;3.98;78.00
10706;BME280;5404;42.656;23.336;2023-12-14T03:54:30;93716.25;;;3.92;78.26
10706;BME280;5404;42.656;23.336;2023-12-14T03:56:56;93671.34;;;3.75;77.87
10706;BME280;5404;42.656;23.336;2023-12-14T03:59:21;93707.78;;;3.94;77.92
10706;BME280;5404;42.656;23.336;2023-12-14T04:01:47;93712.50;;;3.79;78.35
10706;BME280;5404;42.656;23.336;2023-12-14T04:04:12;93709.03;;;3.82;78.87
10706;BME280;5404;42.656;23.336;2023-12-14T04:06:37;93704.31;;;3.97;78.76
10706;BME280;5404;42.656;23.336;2023-12-14T04:09:03;93726.19;;;4.06;78.46
10706;BME280;5404;42.656;23.336;2023-12-14T04:11:28;93720.84;;;3.99;77.78
10706;BME280;5404;42.656;23.336;2023-12-14T04:13:54;93721.22;;;4.01;77.77
10706;BME280;5404;42.656;23.336;2023-12-14T04:16:20;93711.59;;;4.04;78.49
10706;BME280;5404;42.656;23.336;2023-12-14T04:18:46;93757.38;;;4.07;77.96
10706;BME280;5404;42.656;23.336;2023-12-14T04:21:11;93724.22;;;4.17;77.32
10706;BME280;5404;42.656;23.336;2023-12-14T04:23:36;93725.47;;;4.02;78.16
10706;BME280;5404;42.656;23.336;2023-12-14T04:26:02;93720.84;;;3.99;77.97
10706;BME280;5404;42.656;23.336;2023-12-14T04:28:27;93731.63;;;3.99;78.34
10706;BME280;5404;42.656;23.336;2023-12-14T04:30:53;93718.56;;;3.94;78.77
10706;BME280;5404;42.656;23.336;2023-12-14T04:33:18;93734.69;;;4.01;78.69
10706;BME280;5404;42.656;23.336;2023-12-14T04:35:44;93738.59;;;3.97;78.37
10706;BME280;5404;42.656;23.336;2023-12-14T04:38:09;93723.50;;;4.10;78.48
10706;BME280;5404;42.656;23.336;2023-12-14T04:40:35;93715.03;;;4.08;77.95
10706;BME280;5404;42.656;23.336;2023-12-14T04:43:00;93748.59;;;3.96;78.16
10706;BME280;5404;42.656;23.336;2023-12-14T04:45:25;93735.38;;;4.16;77.40
10706;BME280;5404;42.656;23.336;2023-12-14T04:47:51;93727.69;;;4.18;77.87
10706;BME280;5404;42.656;23.336;2023-12-14T04:50:16;93723.41;;;4.20;77.88
10706;BME280;5404;42.656;23.336;2023-12-14T04:52:42;93723.84;;;4.15;78.16
10706;BME280;5404;42.656;23.336;2023-12-14T04:55:10;93728.06;;;4.16;77.90
10706;BME280;5404;42.656;23.336;2023-12-14T04:57:36;93724.56;;;4.19;78.12
10706;BME280;5404;42.656;23.336;2023-12-14T05:00:02;93735.41;;;4.12;77.75
10706;BME280;5404;42.656;23.336;2023-12-14T05:02:27;93740.69;;;4.30;77.45
10706;BME280;5404;42.656;23.336;2023-12-14T05:04:53;93734.56;;;4.26;77.75
10706;BME280;5404;42.656;23.336;2023-12-14T05:07:18;93723.34;;;4.31;77.87
10706;BME280;5404;42.656;23.336;2023-12-14T05:09:48;93744.59;;;4.25;77.24
10706;BME280;5404;42.656;23.336;2023-12-14T05:12:14;93730.28;;;4.28;77.71
10706;BME280;5404;42.656;23.336;2023-12-14T05:14:39;93724.94;;;4.21;78.13
10706;BME280;5404;42.656;23.336;2023-12-14T05:17:05;93715.78;;;4.12;77.68
10706;BME280;5404;42.656;23.336;2023-12-14T05:19:32;93723.06;;;4.15;78.53
10706;BME280;5404;42.656;23.336;2023-12-14T05:21:58;93719.06;;;4.37;77.64
10706;BME280;5404;42.656;23.336;2023-12-14T05:24:24;93721.38;;;4.39;77.51
10706;BME280;5404;42.656;23.336;2023-12-14T05:26:49;93725.25;;;4.34;77.25
10706;BME280;5404;42.656;23.336;2023-12-14T05:29:15;93717.53;;;4.40;77.31
10706;BME280;5404;42.656;23.336;2023-12-14T05:31:42;93725.56;;;4.47;77.28
10706;BME280;5404;42.656;23.336;2023-12-14T05:34:07;93753.66;;;4.49;77.07
10706;BME280;5404;42.656;23.336;2023-12-14T05:36:33;93729.75;;;4.48;76.77
10706;BME280;5404;42.656;23.336;2023-12-14T05:38:58;93742.69;;;4.19;77.70
10706;BME280;5404;42.656;23.336;2023-12-14T05:41:24;93733.03;;;4.25;77.67
10706;BME280;5404;42.656;23.336;2023-12-14T05:43:51;93751.13;;;4.24;78.03
10706;BME280;5404;42.656;23.336;2023-12-14T05:46:25;93740.34;;;4.21;78.18
10706;BME280;5404;42.656;23.336;2023-12-14T05:48:50;93726.53;;;4.15;78.09
10706;BME280;5404;42.656;23.336;2023-12-14T05:51:32;93723.53;;;3.99;77.79
10706;BME280;5404;42.656;23.336;2023-12-14T05:53:58;93751.81;;;4.36;77.29
10706;BME280;5404;42.656;23.336;2023-12-14T05:56:25;93722.28;;;4.14;77.73
10706;BME280;5404;42.656;23.336;2023-12-14T05:58:50;93764.19;;;4.33;77.68
10706;BME280;5404;42.656;23.336;2023-12-14T06:01:19;93742.66;;;4.22;77.30
10706;BME280;5404;42.656;23.336;2023-12-14T06:03:45;93759.19;;;4.31;77.03
10706;BME280;5404;42.656;23.336;2023-12-14T06:06:12;93758.38;;;4.34;77.11
10706;BME280;5404;42.656;23.336;2023-12-14T06:08:41;93748.66;;;4.48;77.43
10706;BME280;5404;42.656;23.336;2023-12-14T06:11:07;93780.69;;;4.39;76.92
10706;BME280;5404;42.656;23.336;2023-12-14T06:13:34;93764.03;;;4.51;76.47
10706;BME280;5404;42.656;23.336;2023-12-14T06:15:59;93752.81;;;4.56;76.42
10706;BME280;5404;42.656;23.336;2023-12-14T06:18:25;93772.22;;;4.40;76.91
10706;BME280;5404;42.656;23.336;2023-12-14T06:20:51;93786.41;;;4.48;76.47
10706;BME280;5404;42.656;23.336;2023-12-14T06:23:18;93772.09;;;4.58;76.30
10706;BME280;5404;42.656;23.336;2023-12-14T06:25:43;93774.09;;;4.47;77.19
10706;BME280;5404;42.656;23.336;2023-12-14T06:28:09;93792.88;;;4.61;76.44
10706;BME280;5404;42.656;23.336;2023-12-14T06:30:34;93783.59;;;4.65;76.21
10706;BME280;5404;42.656;23.336;2023-12-14T06:33:00;93794.41;;;4.62;76.40
10706;BME280;5404;42.656;23.336;2023-12-14T06:35:25;93769.72;;;4.67;76.65
10706;BME280;5404;42.656;23.336;2023-12-14T06:37:50;93798.19;;;4.75;75.94
10706;BME280;5404;42.656;23.336;2023-12-14T06:40:16;93789.34;;;4.71;76.13
10706;BME280;5404;42.656;23.336;2023-12-14T06:42:42;93795.44;;;4.79;76.17
10706;BME280;5404;42.656;23.336;2023-12-14T06:45:08;93810.38;;;4.90;75.88
10706;BME280;5404;42.656;23.336;2023-12-14T06:47:33;93809.59;;;4.97;76.08
10706;BME280;5404;42.656;23.336;2023-12-14T06:49:59;93785.56;;;5.09;75.34
10706;BME280;5404;42.656;23.336;2023-12-14T06:52:24;93806.22;;;5.27;75.55
10706;BME280;5404;42.656;23.336;2023-12-14T06:54:50;93805.13;;;5.21;74.89
10706;BME280;5404;42.656;23.336;2023-12-14T06:57:15;93807.34;;;5.33;75.01
10706;BME280;5404;42.656;23.336;2023-12-14T06:59:41;93792.81;;;5.57;74.49
10706;BME280;5404;42.656;23.336;2023-12-14T07:02:07;93804.06;;;5.52;73.84
10706;BME280;5404;42.656;23.336;2023-12-14T07:04:32;93794.03;;;5.86;72.30
10706;BME280;5404;42.656;23.336;2023-12-14T07:06:58;93807.41;;;6.01;72.26
10706;BME280;5404;42.656;23.336;2023-12-14T07:09:24;93790.81;;;5.99;71.23
10706;BME280;5404;42.656;23.336;2023-12-14T07:11:49;93791.63;;;6.26;70.88
10706;BME280;5404;42.656;23.336;2023-12-14T07:14:15;93810.66;;;6.49;70.48
10706;BME280;5404;42.656;23.336;2023-12-14T07:16:41;93823.22;;;6.63;71.26
10706;BME280;5404;42.656;23.336;2023-12-14T07:19:07;93801.94;;;6.65;68.80
10706;BME280;5404;42.656;23.336;2023-12-14T07:21:32;93816.69;;;6.87;68.49
10706;BME280;5404;42.656;23.336;2023-12-14T07:23:58;93820.28;;;7.04;68.32
10706;BME280;5404;42.656;23.336;2023-12-14T07:26:24;93822.59;;;7.05;67.57
10706;BME280;5404;42.656;23.336;2023-12-14T07:28:49;93823.19;;;7.17;67.29
10706;BME280;5404;42.656;23.336;2023-12-14T07:31:14;93815.00;;;7.43;67.62
10706;BME280;5404;42.656;23.336;2023-12-14T07:33:40;93832.06;;;7.40;67.53
10706;BME280;5404;42.656;23.336;2023-12-14T07:36:05;93826.59;;;7.44;67.03
10706;BME280;5404;42.656;23.336;2023-12-14T07:38:31;93825.59;;;7.58;66.18
10706;BME280;5404;42.656;23.336;2023-12-14T07:40:56;93820.28;;;7.51;65.80
10706;BME280;5404;42.656;23.336;2023-12-14T07:43:22;93828.03;;;7.52;66.00
10706;BME280;5404;42.656;23.336;2023-12-14T07:45:48;93840.56;;;7.66;65.47
10706;BME280;5404;42.656;23.336;2023-12-14T07:48:13;93829.88;;;7.78;65.59
10706;BME280;5404;42.656;23.336;2023-12-14T07:50:39;93845.81;;;7.96;65.08
10706;BME280;5404;42.656;23.336;2023-12-14T07:53:04;93842.94;;;8.03;64.45
10706;BME280;5404;42.656;23.336;2023-12-14T07:55:30;93839.81;;;8.24;64.34
10706;BME280;5404;42.656;23.336;2023-12-14T07:57:56;93844.84;;;8.46;64.80
10706;BME280;5404;42.656;23.336;2023-12-14T08:00:22;93819.78;;;8.58;63.19
10706;BME280;5404;42.656;23.336;2023-12-14T08:02:48;93847.88;;;8.51;63.11
10706;BME280;5404;42.656;23.336;2023-12-14T08:05:13;93858.78;;;8.48;63.31
10706;BME280;5404;42.656;23.336;2023-12-14T08:07:38;93830.16;;;8.63;63.16
10706;BME280;5404;42.656;23.336;2023-12-14T08:10:04;93843.81;;;8.59;61.89
10706;BME280;5404;42.656;23.336;2023-12-14T08:12:30;93831.72;;;8.80;61.99
10706;BME280;5404;42.656;23.336;2023-12-14T08:14:55;93835.16;;;9.17;60.85
10706;BME280;5404;42.656;23.336;2023-12-14T08:17:21;93832.94;;;9.12;59.89
10706;BME280;5404;42.656;23.336;2023-12-14T08:19:46;93836.25;;;9.19;60.00
10706;BME280;5404;42.656;23.336;2023-12-14T08:22:12;93834.81;;;9.47;60.04
10706;BME280;5404;42.656;23.336;2023-12-14T08:24:40;93850.63;;;9.36;59.66
10706;BME280;5404;42.656;23.336;2023-12-14T08:27:05;93836.00;;;9.46;60.28
10706;BME280;5404;42.656;23.336;2023-12-14T08:29:31;93857.25;;;9.51;59.38
10706;BME280;5404;42.656;23.336;2023-12-14T08:31:57;93854.38;;;9.42;59.04
10706;BME280;5404;42.656;23.336;2023-12-14T08:34:27;93849.16;;;9.64;59.09
10706;BME280;5404;42.656;23.336;2023-12-14T08:36:52;93845.25;;;9.65;59.69
10706;BME280;5404;42.656;23.336;2023-12-14T08:39:18;93843.78;;;9.93;59.63
10706;BME280;5404;42.656;23.336;2023-12-14T08:41:45;93839.22;;;10.18;58.61
10706;BME280;5404;42.656;23.336;2023-12-14T08:44:12;93856.75;;;10.01;57.68
10706;BME280;5404;42.656;23.336;2023-12-14T08:46:45;93845.25;;;10.10;58.33
10706;BME280;5404;42.656;23.336;2023-12-14T08:49:11;93852.44;;;10.16;57.30
10706;BME280;5404;42.656;23.336;2023-12-14T08:51:38;93867.25;;;9.87;58.30
10706;BME280;5404;42.656;23.336;2023-12-14T08:54:04;93860.94;;;9.90;58.80
10706;BME280;5404;42.656;23.336;2023-12-14T08:56:30;93843.81;;;10.22;57.78
10706;BME280;5404;42.656;23.336;2023-12-14T08:58:55;93851.00;;;10.70;57.06
10706;BME280;5404;42.656;23.336;2023-12-14T09:01:22;93849.94;;;10.92;55.86
10706;BME280;5404;42.656;23.336;2023-12-14T09:03:48;93841.09;;;10.88;55.58
10706;BME280;5404;42.656;23.336;2023-12-14T09:06:15;93843.28;;;11.44;55.15
10706;BME280;5404;42.656;23.336;2023-12-14T09:08:41;93845.34;;;11.53;53.92
10706;BME280;5404;42.656;23.336;2023-12-14T09:11:06;93869.38;;;11.32;53.92
10706;BME280;5404;42.656;23.336;2023-12-14T09:13:32;93857.97;;;11.59;53.71
10706;BME280;5404;42.656;23.336;2023-12-14T09:15:57;93840.09;;;11.58;53.02
10706;BME280;5404;42.656;23.336;2023-12-14T09:18:23;93812.88;;;11.80;53.40
10706;BME280;5404;42.656;23.336;2023-12-14T09:20:49;93828.97;;;11.53;53.49
10706;BME280;5404;42.656;23.336;2023-12-14T09:23:18;93835.88;;;11.19;54.25
10706;BME280;5404;42.656;23.336;2023-12-14T09:25:44;93826.50;;;11.33;54.51
10706;BME280;5404;42.656;23.336;2023-12-14T09:28:10;93826.94;;;11.19;54.19
10706;BME280;5404;42.656;23.336;2023-12-14T09:30:35;93831.53;;;11.22;54.96
10706;BME280;5404;42.656;23.336;2023-12-14T09:33:01;93837.41;;;11.20;54.32
10706;BME280;5404;42.656;23.336;2023-12-14T09:35:26;93837.31;;;11.11;55.45
10706;BME280;5404;42.656;23.336;2023-12-14T09:37:51;93840.84;;;11.71;54.63
10706;BME280;5404;42.656;23.336;2023-12-14T09:40:18;93848.94;;;11.75;53.71
10706;BME280;5404;42.656;23.336;2023-12-14T09:42:44;93835.34;;;11.97;53.31
10706;BME280;5404;42.656;23.336;2023-12-14T09:45:10;93850.59;;;12.07;53.37
10706;BME280;5404;42.656;23.336;2023-12-14T09:47:37;93841.56;;;11.97;53.05
10706;BME280;5404;42.656;23.336;2023-12-14T09:50:05;93850.94;;;12.31;52.26
10706;BME280;5404;42.656;23.336;2023-12-14T09:52:31;93862.38;;;12.60;52.23
10706;BME280;5404;42.656;23.336;2023-12-14T09:54:58;93866.38;;;12.90;51.43
10706;BME280;5404;42.656;23.336;2023-12-14T09:57:23;93865.25;;;12.78;50.95
10706;BME280;5404;42.656;23.336;2023-12-14T09:59:54;93865.09;;;12.82;51.34
10706;BME280;5404;42.656;23.336;2023-12-14T10:02:25;93872.78;;;12.74;51.41
10706;BME280;5404;42.656;23.336;2023-12-14T10:04:53;93861.88;;;12.74;51.29
10706;BME280;5404;42.656;23.336;2023-12-14T10:07:19;93857.25;;;12.62;50.77
10706;BME280;5404;42.656;23.336;2023-12-14T10:09:45;93847.69;;;12.23;51.69
10706;BME280;5404;42.656;23.336;2023-12-14T10:12:10;93855.44;;;12.25;51.74
10706;BME280;5404;42.656;23.336;2023-12-14T10:14:37;93852.13;;;12.30;52.44
10706;BME280;5404;42.656;23.336;2023-12-14T10:17:21;93864.97;;;12.20;52.67
10706;BME280;5404;42.656;23.336;2023-12-14T10:19:49;93851.22;;;12.11;52.84
10706;BME280;5404;42.656;23.336;2023-12-14T10:22:15;93865.75;;;11.86;53.42
10706;BME280;5404;42.656;23.336;2023-12-14T10:24:44;93839.41;;;11.92;53.02
10706;BME280;5404;42.656;23.336;2023-12-14T10:27:10;93858.81;;;11.94;53.64
10706;BME280;5404;42.656;23.336;2023-12-14T10:29:37;93853.06;;;11.80;53.83
10706;BME280;5404;42.656;23.336;2023-12-14T10:32:05;93848.38;;;11.80;53.36
10706;BME280;5404;42.656;23.336;2023-12-14T10:34:35;93871.75;;;11.56;53.91
10706;BME280;5404;42.656;23.336;2023-12-14T10:37:01;93882.34;;;11.28;54.52
10706;BME280;5404;42.656;23.336;2023-12-14T10:39:29;93880.06;;;11.39;54.88
10706;BME280;5404;42.656;23.336;2023-12-14T10:41:57;93877.00;;;11.37;55.00
10706;BME280;5404;42.656;23.336;2023-12-14T10:44:26;93872.09;;;11.32;55.89
10706;BME280;5404;42.656;23.336;2023-12-14T10:46:57;93883.22;;;11.13;58.42
10706;BME280;5404;42.656;23.336;2023-12-14T10:49:25;93885.38;;;10.92;59.78
10706;BME280;5404;42.656;23.336;2023-12-14T10:51:55;93891.72;;;10.60;61.69
10706;BME280;5404;42.656;23.336;2023-12-14T10:54:25;93901.97;;;10.56;62.28
10706;BME280;5404;42.656;23.336;2023-12-14T10:56:55;93906.28;;;10.41;63.34
10706;BME280;5404;42.656;23.336;2023-12-14T10:59:21;93910.16;;;10.56;63.41
10706;BME280;5404;42.656;23.336;2023-12-14T11:01:52;93905.97;;;10.52;63.58
10706;BME280;5404;42.656;23.336;2023-12-14T11:04:24;93915.59;;;10.56;63.83
10706;BME280;5404;42.656;23.336;2023-12-14T11:06:53;93915.06;;;10.62;64.00
10706;BME280;5404;42.656;23.336;2023-12-14T11:09:18;93919.75;;;10.61;64.36
10706;BME280;5404;42.656;23.336;2023-12-14T11:14:20;93942.28;;;10.16;64.65
10706;BME280;5404;42.656;23.336;2023-12-14T11:16:54;93932.03;;;10.08;64.93
10706;BME280;5404;42.656;23.336;2023-12-14T11:24:23;93951.91;;;9.56;64.75
10706;BME280;5404;42.656;23.336;2023-12-14T11:26:49;93959.28;;;9.39;65.02
10706;BME280;5404;42.656;23.336;2023-12-14T11:29:15;93953.00;;;9.42;65.13
10706;BME280;5404;42.656;23.336;2023-12-14T11:31:42;93976.47;;;9.17;65.45
10706;BME280;5404;42.656;23.336;2023-12-14T11:34:07;93970.09;;;9.07;65.51
10706;BME280;5404;42.656;23.336;2023-12-14T11:36:33;93956.28;;;8.98;64.64
10706;BME280;5404;42.656;23.336;2023-12-14T11:38:58;93965.22;;;8.98;64.28
10706;BME280;5404;42.656;23.336;2023-12-14T11:41:24;93974.97;;;8.96;64.42
10706;BME280;5404;42.656;23.336;2023-12-14T11:43:52;93975.59;;;9.03;64.24
10706;BME280;5404;42.656;23.336;2023-12-14T11:46:18;93969.69;;;9.09;63.76
10706;BME280;5404;42.656;23.336;2023-12-14T11:48:44;93979.97;;;9.17;63.06
10706;BME280;5404;42.656;23.336;2023-12-14T11:51:10;93990.56;;;9.12;63.62
10706;BME280;5404;42.656;23.336;2023-12-14T11:53:36;94020.38;;;8.95;63.41
10706;BME280;5404;42.656;23.336;2023-12-14T11:56:04;94003.13;;;8.86;64.03
10706;BME280;5404;42.656;23.336;2023-12-14T11:58:31;94000.47;;;8.82;63.00
10706;BME280;5404;42.656;23.336;2023-12-14T12:03:42;94013.34;;;8.78;63.48
10706;BME280;5404;42.656;23.336;2023-12-14T12:06:20;94023.59;;;8.71;64.00
10706;BME280;5404;42.656;23.336;2023-12-14T12:08:45;94029.69;;;8.55;64.36
10706;BME280;5404;42.656;23.336;2023-12-14T12:11:16;94038.47;;;8.62;63.71
10706;BME280;5404;42.656;23.336;2023-12-14T12:13:42;94035.66;;;8.46;63.86
10706;BME280;5404;42.656;23.336;2023-12-14T12:16:07;94045.16;;;8.35;64.35
10706;BME280;5404;42.656;23.336;2023-12-14T12:18:32;94047.06;;;8.11;64.30
10706;BME280;5404;42.656;23.336;2023-12-14T12:20:58;94026.88;;;8.15;64.53
10706;BME280;5404;42.656;23.336;2023-12-14T12:23:29;94039.06;;;8.31;63.77
10706;BME280;5404;42.656;23.336;2023-12-14T12:25:54;94013.50;;;8.24;63.71
10706;BME280;5404;42.656;23.336;2023-12-14T12:28:21;94041.84;;;8.23;63.86
10706;BME280;5404;42.656;23.336;2023-12-14T12:30:47;94020.91;;;8.01;63.37
10706;BME280;5404;42.656;23.336;2023-12-14T12:33:12;94022.47;;;7.98;64.36
10706;BME280;5404;42.656;23.336;2023-12-14T12:35:38;94034.97;;;7.92;64.83
10706;BME280;5404;42.656;23.336;2023-12-14T12:38:05;94007.09;;;7.92;64.22
10706;BME280;5404;42.656;23.336;2023-12-14T12:40:30;94027.91;;;7.98;64.69
10706;BME280;5404;42.656;23.336;2023-12-14T12:42:56;94042.19;;;8.02;64.93
10706;BME280;5404;42.656;23.336;2023-12-14T12:45:22;94038.72;;;7.75;65.56
10706;BME280;5404;42.656;23.336;2023-12-14T12:47:50;94040.56;;;7.81;65.25
10706;BME280;5404;42.656;23.336;2023-12-14T12:50:17;94044.09;;;7.78;64.81
10706;BME280;5404;42.656;23.336;2023-12-14T12:52:42;94039.91;;;7.74;66.19
10706;BME280;5404;42.656;23.336;2023-12-14T12:55:08;94047.31;;;7.70;65.67
10706;BME280;5404;42.656;23.336;2023-12-14T12:57:37;94038.69;;;7.52;66.55
10706;BME280;5404;42.656;23.336;2023-12-14T13:00:03;94045.53;;;7.60;66.68
10706;BME280;5404;42.656;23.336;2023-12-14T13:02:37;94030.88;;;7.54;66.09
10706;BME280;5404;42.656;23.336;2023-12-14T13:05:04;94051.78;;;7.57;66.27
10706;BME280;5404;42.656;23.336;2023-12-14T13:07:31;94050.41;;;7.72;65.93
10706;BME280;5404;42.656;23.336;2023-12-14T13:09:56;94051.31;;;7.62;65.89
10706;BME280;5404;42.656;23.336;2023-12-14T13:12:23;94050.91;;;7.63;65.56
10706;BME280;5404;42.656;23.336;2023-12-14T13:14:48;94041.97;;;7.66;65.54